Time,TemperatureF,DewpointF,PressureIn,WindDirection,WindDirectionDegrees,WindSpeedMPH,WindSpeedGustMPH,Humidity,HourlyPrecipIn,Conditions,Clouds,dailyrainin,SoftwareType,DateUTC
2013-09-03 00:02:00,62.6,62.0,29.60,ENE,67,0.0,-999.0,98,-99.99,,,0.00,Acu-Link.com,2013-09-03 04:02:00,
2013-09-03 00:18:00,62.4,61.8,29.59,SSE,157,0.0,-999.0,98,-99.99,,,0.00,Acu-Link.com,2013-09-03 04:18:00,
2013-09-03 00:33:00,62.4,61.8,29.59,SSE,157,0.0,-999.0,98,-99.99,,,0.00,Acu-Link.com,2013-09-03 04:33:00,
2013-09-03 00:48:00,62.2,61.6,29.59,WNW,292,0.0,-999.0,98,-99.99,,,0.00,Acu-Link.com,2013-09-03 04:48:00,
2013-09-03 01:03:00,62.2,61.6,29.59,West,270,0.0,-999.0,98,-99.99,,,0.00,Acu-Link.com,2013-09-03 05:03:00,
2013-09-03 01:18:00,62.1,61.5,29.59,WNW,292,0.0,-999.0,98,-99.99,,,0.00,Acu-Link.com,2013-09-03 05:18:00,
2013-09-03 01:34:00,61.7,61.1,29.59,North,0,0.0,-999.0,98,-99.99,,,0.00,Acu-Link.com,2013-09-03 05:34:00,
2013-09-03 01:49:00,61.5,60.9,29.59,NW,315,0.0,-999.0,98,-99.99,,,0.00,Acu-Link.com,2013-09-03 05:49:00,
2013-09-03 02:04:00,61.2,60.6,29.59,WNW,292,0.0,-999.0,98,-99.99,,,0.00,Acu-Link.com,2013-09-03 06:04:00,
2013-09-03 02:19:00,61.2,60.6,29.59,WNW,292,0.0,-999.0,98,-99.99,,,0.00,Acu-Link.com,2013-09-03 06:19:00,
2013-09-03 02:34:00,60.8,60.2,29.59,WNW,292,0.0,-999.0,98,-99.99,,,0.00,Acu-Link.com,2013-09-03 06:34:00,
2013-09-03 02:50:00,60.8,60.2,29.59,WNW,292,0.0,-999.0,98,-99.99,,,0.00,Acu-Link.com,2013-09-03 06:50:00,
2013-09-03 03:05:00,61.3,60.7,29.58,NNE,22,0.0,-999.0,98,-99.99,,,0.00,Acu-Link.com,2013-09-03 07:05:00,
2013-09-03 03:20:00,61.7,61.1,29.58,SSE,157,0.0,-999.0,98,-99.99,,,0.00,Acu-Link.com,2013-09-03 07:20:00,
2013-09-03 03:35:00,61.7,61.1,29.58,SSE,157,0.0,-999.0,98,-99.99,,,0.00,Acu-Link.com,2013-09-03 07:35:00,
2013-09-03 03:50:00,61.7,61.1,29.58,SE,135,0.0,-999.0,98,-99.99,,,0.00,Acu-Link.com,2013-09-03 07:50:00,
2013-09-03 04:06:00,61.7,61.1,29.59,SSW,202,0.0,-999.0,98,-99.99,,,0.00,Acu-Link.com,2013-09-03 08:06:00,
2013-09-03 04:22:00,61.7,61.1,29.59,West,270,0.0,-999.0,98,-99.99,,,0.00,Acu-Link.com,2013-09-03 08:22:00,
2013-09-03 04:37:00,61.7,61.1,29.59,ESE,112,0.0,-999.0,98,-99.99,,,0.00,Acu-Link.com,2013-09-03 08:37:00,
2013-09-03 04:52:00,61.7,61.1,29.59,ESE,112,0.0,-999.0,98,-99.99,,,0.00,Acu-Link.com,2013-09-03 08:52:00,
2013-09-03 05:07:00,61.7,61.1,29.59,NE,45,0.0,-999.0,98,-99.99,,,0.00,Acu-Link.com,2013-09-03 09:07:00,
2013-09-03 05:22:00,61.5,60.9,29.60,West,270,0.0,-999.0,98,-99.99,,,0.00,Acu-Link.com,2013-09-03 09:22:00,
2013-09-03 05:38:00,61.7,61.1,29.61,NNW,337,0.0,-999.0,98,-99.99,,,0.00,Acu-Link.com,2013-09-03 09:38:00,
2013-09-03 05:53:00,61.7,61.1,29.61,East,90,0.0,-999.0,98,-99.99,,,0.00,Acu-Link.com,2013-09-03 09:53:00,
2013-09-03 06:08:00,61.5,60.9,29.61,South,180,0.0,-999.0,98,-99.99,,,0.00,Acu-Link.com,2013-09-03 10:08:00,
2013-09-03 06:23:00,61.5,60.9,29.62,West,270,0.0,-999.0,98,-99.99,,,0.00,Acu-Link.com,2013-09-03 10:23:00,
2013-09-03 06:39:00,61.5,60.9,29.63,ENE,67,0.0,-999.0,98,-99.99,,,0.00,Acu-Link.com,2013-09-03 10:39:00,
2013-09-03 06:54:00,61.5,60.9,29.63,West,270,0.0,-999.0,98,-99.99,,,0.00,Acu-Link.com,2013-09-03 10:54:00,
2013-09-03 07:09:00,61.5,60.9,29.64,NW,315,0.0,-999.0,98,-99.99,,,0.00,Acu-Link.com,2013-09-03 11:09:00,
2013-09-03 07:24:00,61.7,61.1,29.64,East,90,0.0,-999.0,98,-99.99,,,0.00,Acu-Link.com,2013-09-03 11:24:00,
2013-09-03 07:39:00,61.7,61.1,29.65,SSE,157,0.0,-999.0,98,-99.99,,,0.00,Acu-Link.com,2013-09-03 11:39:00,
2013-09-03 07:55:00,61.9,61.3,29.65,East,90,0.0,-999.0,98,-99.99,,,0.00,Acu-Link.com,2013-09-03 11:55:00,
2013-09-03 08:10:00,61.9,61.3,29.65,SSE,157,0.0,-999.0,98,-99.99,,,0.00,Acu-Link.com,2013-09-03 12:10:00,
2013-09-03 08:25:00,62.2,61.6,29.65,East,90,0.0,-999.0,98,-99.99,,,0.00,Acu-Link.com,2013-09-03 12:25:00,
2013-09-03 08:40:00,62.6,62.0,29.66,SW,225,0.0,-999.0,98,-99.99,,,0.00,Acu-Link.com,2013-09-03 12:40:00,
2013-09-03 08:56:00,63.0,62.4,29.66,East,90,0.0,-999.0,98,-99.99,,,0.00,Acu-Link.com,2013-09-03 12:56:00,
2013-09-03 09:11:00,63.0,62.4,29.66,West,270,0.0,-999.0,98,-99.99,,,0.00,Acu-Link.com,2013-09-03 13:11:00,
2013-09-03 09:26:00,63.3,62.7,29.66,SW,225,0.0,-999.0,98,-99.99,,,0.00,Acu-Link.com,2013-09-03 13:26:00,
2013-09-03 09:41:00,64.6,64.0,29.66,SSE,157,3.2,-999.0,98,-99.99,,,0.00,Acu-Link.com,2013-09-03 13:41:00,
2013-09-03 09:56:00,65.7,65.1,29.66,NE,45,0.0,-999.0,98,-99.99,,,0.00,Acu-Link.com,2013-09-03 13:56:00,
2013-09-03 10:12:00,67.3,66.7,29.66,ESE,112,0.0,-999.0,98,-99.99,,,0.00,Acu-Link.com,2013-09-03 14:12:00,
2013-09-03 10:27:00,68.9,68.3,29.66,South,180,0.0,-999.0,98,-99.99,,,0.00,Acu-Link.com,2013-09-03 14:27:00,
2013-09-03 10:42:00,75.7,75.1,29.65,WSW,247,0.0,-999.0,98,-99.99,,,0.00,Acu-Link.com,2013-09-03 14:42:00,
2013-09-03 10:57:00,78.6,78.0,29.64,SE,135,0.0,-999.0,98,-99.99,,,0.00,Acu-Link.com,2013-09-03 14:57:00,
2013-09-03 11:12:00,75.7,75.1,29.65,East,90,2.7,-999.0,98,-99.99,,,0.00,Acu-Link.com,2013-09-03 15:12:00,
2013-09-03 11:28:00,73.2,72.6,29.65,East,90,0.0,-999.0,98,-99.99,,,0.00,Acu-Link.com,2013-09-03 15:28:00,
2013-09-03 11:43:00,70.2,69.6,29.64,North,0,0.0,-999.0,98,-99.99,,,0.00,Acu-Link.com,2013-09-03 15:43:00,
2013-09-03 11:58:00,71.4,70.8,29.64,North,0,0.0,-999.0,98,-99.99,,,0.00,Acu-Link.com,2013-09-03 15:58:00,
2013-09-03 12:13:00,72.9,72.3,29.63,NW,315,0.0,-999.0,98,-99.99,,,0.00,Acu-Link.com,2013-09-03 16:13:00,
2013-09-03 12:28:00,74.7,74.1,29.62,ESE,112,0.0,-999.0,98,-99.99,,,0.00,Acu-Link.com,2013-09-03 16:28:00,
2013-09-03 12:44:00,78.3,77.7,29.62,NNW,337,0.0,-999.0,98,-99.99,,,0.00,Acu-Link.com,2013-09-03 16:44:00,
2013-09-03 12:59:00,82.8,82.2,29.61,West,270,4.2,-999.0,98,-99.99,,,0.00,Acu-Link.com,2013-09-03 16:59:00,
2013-09-03 13:14:00,77.7,77.1,29.61,East,90,1.7,-999.0,98,-99.99,,,0.00,Acu-Link.com,2013-09-03 17:14:00,
2013-09-03 13:29:00,75.9,75.3,29.61,West,270,0.0,-999.0,98,-99.99,,,0.00,Acu-Link.com,2013-09-03 17:29:00,
2013-09-03 13:44:00,77.2,76.6,29.61,ENE,67,2.2,-999.0,98,-99.99,,,0.00,Acu-Link.com,2013-09-03 17:44:00,
2013-09-03 14:00:00,77.2,76.6,29.61,ENE,67,1.1,-999.0,98,-99.99,,,0.00,Acu-Link.com,2013-09-03 18:00:00,
2013-09-03 14:15:00,77.4,76.8,29.60,NE,45,1.1,-999.0,98,-99.99,,,0.00,Acu-Link.com,2013-09-03 18:15:00,
2013-09-03 14:30:00,80.8,80.2,29.59,ESE,112,1.7,-999.0,98,-99.99,,,0.00,Acu-Link.com,2013-09-03 18:30:00,
2013-09-03 14:45:00,82.9,82.3,29.59,East,90,2.2,-999.0,98,-99.99,,,0.00,Acu-Link.com,2013-09-03 18:45:00,
2013-09-03 15:01:00,82.9,82.3,29.58,West,270,0.0,-999.0,98,-99.99,,,0.00,Acu-Link.com,2013-09-03 19:01:00,
2013-09-03 15:16:00,84.4,83.8,29.58,WSW,247,2.2,-999.0,98,-99.99,,,0.00,Acu-Link.com,2013-09-03 19:16:00,
2013-09-03 15:31:00,81.9,81.3,29.58,East,90,2.2,-999.0,98,-99.99,,,0.00,Acu-Link.com,2013-09-03 19:31:00,
2013-09-03 15:46:00,84.6,84.0,29.57,ESE,112,2.2,-999.0,98,-99.99,,,0.00,Acu-Link.com,2013-09-03 19:46:00,
2013-09-03 16:01:00,78.3,77.7,29.57,East,90,2.7,-999.0,98,-99.99,,,0.00,Acu-Link.com,2013-09-03 20:01:00,
2013-09-03 16:17:00,75.4,74.8,29.58,WNW,292,5.3,-999.0,98,-99.99,,,0.00,Acu-Link.com,2013-09-03 20:17:00,
2013-09-03 16:32:00,73.9,73.3,29.58,NNE,22,1.1,-999.0,98,-99.99,,,0.00,Acu-Link.com,2013-09-03 20:32:00,
2013-09-03 16:50:00,68.0,67.4,29.59,NNW,337,4.2,-999.0,98,-99.99,,,0.00,Acu-Link.com,2013-09-03 20:50:00,
2013-09-03 17:06:00,64.9,64.3,29.61,NW,315,5.8,-999.0,98,-99.99,,,0.06,Acu-Link.com,2013-09-03 21:06:00,
2013-09-03 17:21:00,64.9,64.3,29.61,WNW,292,0.0,-999.0,98,-99.99,,,0.10,Acu-Link.com,2013-09-03 21:21:00,
2013-09-03 17:36:00,64.4,63.8,29.62,ESE,112,0.0,-999.0,98,-99.99,,,0.12,Acu-Link.com,2013-09-03 21:36:00,
2013-09-03 17:51:00,64.6,64.0,29.62,East,90,0.0,-999.0,98,-99.99,,,0.14,Acu-Link.com,2013-09-03 21:51:00,
2013-09-03 18:06:00,64.2,63.6,29.61,ESE,112,0.0,-999.0,98,-99.99,,,0.14,Acu-Link.com,2013-09-03 22:06:00,
2013-09-03 18:22:00,64.2,63.6,29.61,South,180,1.7,-999.0,98,-99.99,,,0.14,Acu-Link.com,2013-09-03 22:22:00,
2013-09-03 18:37:00,64.2,63.6,29.62,South,180,2.7,-999.0,98,-99.99,,,0.14,Acu-Link.com,2013-09-03 22:37:00,
2013-09-03 18:52:00,64.0,63.4,29.62,SSE,157,2.7,-999.0,98,-99.99,,,0.14,Acu-Link.com,2013-09-03 22:52:00,
2013-09-03 19:07:00,63.9,63.3,29.62,SSW,202,3.2,-999.0,98,-99.99,,,0.14,Acu-Link.com,2013-09-03 23:07:00,
2013-09-03 19:22:00,63.5,62.9,29.63,SSE,157,3.7,-999.0,98,-99.99,,,0.14,Acu-Link.com,2013-09-03 23:22:00,
2013-09-03 19:38:00,63.5,62.9,29.63,SSE,157,5.3,-999.0,98,-99.99,,,0.14,Acu-Link.com,2013-09-03 23:38:00,
2013-09-03 19:53:00,62.8,62.2,29.63,WNW,292,3.2,-999.0,98,-99.99,,,0.14,Acu-Link.com,2013-09-03 23:53:00,
2013-09-03 20:08:00,62.8,62.2,29.64,South,180,1.1,-999.0,98,-99.99,,,0.14,Acu-Link.com,2013-09-04 00:08:00,
2013-09-03 20:23:00,62.6,62.0,29.65,NE,45,0.0,-999.0,98,-99.99,,,0.14,Acu-Link.com,2013-09-04 00:23:00,
2013-09-03 20:38:00,62.2,61.6,29.66,WNW,292,5.3,-999.0,98,-99.99,,,0.14,Acu-Link.com,2013-09-04 00:38:00,
2013-09-03 20:54:00,62.2,61.6,29.66,SE,135,2.7,-999.0,98,-99.99,,,0.14,Acu-Link.com,2013-09-04 00:54:00,
2013-09-03 21:09:00,62.2,61.6,29.67,West,270,4.7,-999.0,98,-99.99,,,0.14,Acu-Link.com,2013-09-04 01:09:00,
2013-09-03 21:24:00,62.4,61.8,29.67,SE,135,0.0,-999.0,98,-99.99,,,0.14,Acu-Link.com,2013-09-04 01:24:00,
2013-09-03 21:39:00,62.2,61.6,29.67,East,90,0.0,-999.0,98,-99.99,,,0.14,Acu-Link.com,2013-09-04 01:39:00,
2013-09-03 21:55:00,61.9,61.3,29.68,East,90,0.0,-999.0,98,-99.99,,,0.14,Acu-Link.com,2013-09-04 01:55:00,
2013-09-03 22:10:00,61.9,61.3,29.68,North,0,0.0,-999.0,98,-99.99,,,0.14,Acu-Link.com,2013-09-04 02:10:00,
2013-09-03 22:25:00,61.5,60.9,29.68,WSW,247,2.2,-999.0,98,-99.99,,,0.14,Acu-Link.com,2013-09-04 02:25:00,
2013-09-03 22:40:00,61.9,61.3,29.68,West,270,3.2,-999.0,98,-99.99,,,0.14,Acu-Link.com,2013-09-04 02:40:00,
2013-09-03 22:55:00,62.2,61.6,29.68,WNW,292,2.2,-999.0,98,-99.99,,,0.14,Acu-Link.com,2013-09-04 02:55:00,
2013-09-03 23:11:00,62.1,61.5,29.68,WNW,292,0.0,-999.0,98,-99.99,,,0.14,Acu-Link.com,2013-09-04 03:11:00,
2013-09-03 23:26:00,61.9,61.3,29.68,WNW,292,0.0,-999.0,98,-99.99,,,0.14,Acu-Link.com,2013-09-04 03:26:00,
2013-09-03 23:41:00,61.9,61.3,29.68,WNW,292,4.7,-999.0,98,-99.99,,,0.14,Acu-Link.com,2013-09-04 03:41:00,
2013-09-03 23:56:00,62.6,62.0,29.69,WNW,292,2.2,-999.0,98,-99.99,,,0.14,Acu-Link.com,2013-09-04 03:56:00,